Flight Track Log - Related Links

Times and Time Zones

All times are in EDT time to prevent confusion due to time zone crossing. See the N42JD flight status page for this flight to view local times or setup timezone preferences in your user account.

Time Position Orientation Groundspeed Altitude Reporting Facility
EDT Latitude Longitude Course Direction KTS MPH feet Rate Location/Type
Mon 10:44:02 AM 32.4111 -97.7506 320° Northwest 166 191 2,600  Level Fort Worth Center
Mon 10:45:02 AM 32.4383 -97.7803 317° Northwest 133 153 3,500 793 Climbing Fort Worth Center
Mon 10:46:03 AM 32.4633 -97.8097 315° West 127 146 4,200 750 Climbing Fort Worth Center
Mon 10:47:02 AM 32.4861 -97.8419 310° West 127 146 5,000 750 Climbing Fort Worth Center
Mon 10:48:03 AM 32.5111 -97.8717 315° West 127 146 5,700 793 Climbing Fort Worth Center
Mon 10:49:00 AM 32.5466 -97.9133 320° Northwest  Level FlightAware Approximate
Mon 10:49:03 AM 32.5358 -97.9061 310° West 138 159 6,600  Level Fort Worth Center
Mon 10:50:02 AM 32.5631 -97.9358 317° Northwest 138 159 7,200 700 Climbing Fort Worth Center
Mon 10:51:03 AM 32.5878 -97.9706 310° West 138 159 8,000 446 Climbing Fort Worth Center
Mon 10:52:03 AM 32.6169 -98.0103 311° West 145 167 8,100 50 Climbing Fort Worth Center
Mon 10:53:02 AM 32.6542 -98.0525 316° Northwest 171 197 8,100  Level Fort Worth Center
Mon 10:54:02 AM 32.6894 -98.0997 312° West 183 211 8,100 -50 Level Fort Worth Center
Mon 10:55:02 AM 32.7269 -98.1444 315° West 191 220 8,000 200 Descending Fort Worth Center
Mon 10:56:02 AM 32.7600 -98.1892 311° West 186 214 8,500 600 Climbing Fort Worth Center
Mon 10:57:02 AM 32.7931 -98.2264 317° Northwest 174 200 9,200 600 Climbing Fort Worth Center
Mon 10:58:02 AM 32.8242 -98.2664 313° West 168 193 9,700 600 Climbing Fort Worth Center
Mon 10:59:02 AM 32.8531 -98.3036 313° West 163 188 10,400 600 Climbing Fort Worth Center
Mon 11:00:02 AM 32.8819 -98.3461 309° West 163 188 10,900 500 Climbing Fort Worth Center
Mon 11:01:02 AM 32.9131 -98.3858 313° West 163 188 11,400 500 Climbing Fort Worth Center
Mon 11:02:02 AM 32.9419 -98.4233 313° West 163 188 11,900 300 Climbing Fort Worth Center
Mon 11:03:02 AM 32.9689 -98.4658 307° West 163 188 12,000 50 Climbing Fort Worth Center
Mon 11:04:03 AM 33.0061 -98.5083 316° Northwest 163 188 12,000  Level Fort Worth Center
Mon 11:05:02 AM 33.0453 -98.5533 316° Northwest 175 201 12,000  Level Fort Worth Center
Mon 11:06:02 AM 33.0761 -98.5936 312° West 175 201 12,000  Level Fort Worth Center
Mon 11:07:03 AM 33.1153 -98.6386 316° Northwest 175 201 12,000  Level Fort Worth Center
Mon 11:08:02 AM 33.1525 -98.6839 314° West 175 201 12,000  Level Fort Worth Center
Mon 11:09:02 AM 33.1833 -98.7289 309° West 180 207 12,000 50 Level Fort Worth Center
Mon 11:10:02 AM 33.2183 -98.7767 311° West 190 219 12,100  Climbing Fort Worth Center
Mon 11:11:03 AM 33.2575 -98.8244 314° West 190 219 12,000 -50 Descending Fort Worth Center
Mon 11:12:02 AM 33.2944 -98.8722 313° West 185 213 12,000  Level Fort Worth Center
Mon 11:13:03 AM 33.3294 -98.9175 313° West 185 213 12,000  Level Fort Worth Center
Mon 11:14:02 AM 33.3603 -98.9578 313° West 185 213 12,000  Level Fort Worth Center
Mon 11:15:02 AM 33.3953 -99.0033 313° West 185 213 12,000  Level Fort Worth Center
Mon 11:16:02 AM 33.4342 -99.0539 313° West 185 213 12,000  Level Fort Worth Center
Mon 11:17:02 AM 33.4669 -99.0967 313° West 185 213 12,000  Level Fort Worth Center
Mon 11:18:02 AM 33.5147 -99.1175 340° North 172 198 12,000  Level Fort Worth Center
Mon 11:19:03 AM 33.5628 -99.1236 354° North 181 208 12,000  Level Fort Worth Center
Mon 11:20:02 AM 33.6125 -99.1319 352° North 190 219 12,000  Level Fort Worth Center
Mon 11:21:02 AM 33.6711 -99.1381 355° North 185 213 12,000  Level Fort Worth Center
Mon 11:22:03 AM 33.7211 -99.1442 354° North 180 207 12,000  Level Fort Worth Center
Mon 11:23:02 AM 33.7686 -99.1650 340° North 180 207 12,000  Level Fort Worth Center
Mon 11:24:02 AM 33.7931 -99.2106 303° West 174 200 12,000  Level Fort Worth Center
Mon 11:25:02 AM 33.8258 -99.2586 309° West 185 213 12,000  Level Fort Worth Center
Mon 11:26:02 AM 33.8628 -99.2994 317° Northwest 185 213 12,000  Level Fort Worth Center
Mon 11:27:02 AM 33.9039 -99.3456 317° Northwest 185 213 12,000  Level Fort Worth Center
Mon 11:28:02 AM 33.9406 -99.3889 316° Northwest 185 213 12,000  Level Fort Worth Center
Mon 11:29:02 AM 33.9775 -99.4297 317° Northwest 185 213 12,000  Level Fort Worth Center
Mon 11:30:03 AM 34.0144 -99.4706 318° Northwest 185 213 12,000  Level Fort Worth Center
Mon 11:31:03 AM 34.0514 -99.5142 316° Northwest 185 213 12,000  Level Fort Worth Center
Mon 11:32:02 AM 34.0861 -99.5575 314° West 185 213 12,000  Level Fort Worth Center
Mon 11:33:02 AM 34.1231 -99.5961 319° Northwest 185 213 12,000  Level Fort Worth Center
Mon 11:34:03 AM 34.1536 -99.6372 312° West 185 213 12,000  Level Fort Worth Center
Mon 11:35:02 AM 34.1961 -99.6983 310° West 190 219 12,000  Level Fort Worth Center
Mon 11:36:02 AM 34.2331 -99.7422 316° Northwest 190 219 12,000  Level Fort Worth Center
Mon 11:37:03 AM 34.2697 -99.7858 315° West 190 219 12,000  Level Fort Worth Center
Mon 11:38:02 AM 34.3064 -99.8297 315° West 190 219 12,000  Level Fort Worth Center
Mon 11:39:02 AM 34.3494 -99.8761 318° Northwest 190 219 12,000  Level Fort Worth Center
Mon 11:40:02 AM 34.3839 -99.9225 312° West 197 227 12,000  Level Fort Worth Center
Mon 11:41:02 AM 34.4167 -99.9536 322° Northwest 189 217 12,000  Level Fort Worth Center
Mon 11:42:02 AM 34.4514 -99.9922 317° Northwest 176 203 12,000  Level Fort Worth Center
Mon 11:43:03 AM 34.4978 -100.0592 310° West 203 234 12,000 50 Level Fort Worth Center
Mon 11:44:03 AM 34.5344 -100.1033 315° West 195 224 12,100 105 Climbing Fort Worth Center
Mon 11:44:57 AM 34.5608 -100.1339 316° Northwest 186 214 12,200 52 Climbing Albuquerque Center
Mon 11:45:59 AM 34.5978 -100.1767 316° Northwest 186 214 12,200 -48 Level Albuquerque Center
Mon 11:47:01 AM 34.6419 -100.2303 315° West 189 217 12,100 -48 Descending Albuquerque Center
Mon 11:48:03 AM 34.6797 -100.2753 316° Northwest 190 219 12,100  Level Albuquerque Center
Mon 11:49:05 AM 34.7178 -100.3206 316° Northwest 191 220 12,100  Level Albuquerque Center
Mon 11:50:07 AM 34.7547 -100.3689 313° West 192 221 12,100  Level Albuquerque Center
Mon 11:51:09 AM 34.7919 -100.4150 315° West 190 219 12,100  Level Albuquerque Center
Mon 11:52:11 AM 34.8297 -100.4614 315° West 192 221 12,100  Level Albuquerque Center
Mon 11:53:12 AM 34.8742 -100.5167 314° West 191 220 12,100  Level Albuquerque Center
Mon 11:54:14 AM 34.9122 -100.5617 316° Northwest 191 220 12,100  Level Albuquerque Center
Mon 11:55:16 AM 34.9486 -100.6075 314° West 189 217 12,100  Level Albuquerque Center
Mon 11:56:18 AM 34.9869 -100.6539 315° West 191 220 12,100  Level Albuquerque Center
Mon 11:57:20 AM 35.0236 -100.7008 314° West 193 222 12,100  Level Albuquerque Center
Mon 11:58:22 AM 35.0594 -100.7472 313° West 191 220 12,100  Level Albuquerque Center
Mon 11:59:25 AM 35.1022 -100.8006 314° West 185 213 12,100  Level Albuquerque Center
Mon 12:00:27 PM 35.1375 -100.8461 313° West 184 212 12,100  Level Albuquerque Center
Mon 12:01:28 PM 35.1744 -100.8903 316° Northwest 186 214 12,100  Level Albuquerque Center
Mon 12:02:30 PM 35.2078 -100.9336 313° West 180 207 12,100  Level Albuquerque Center
Mon 12:03:32 PM 35.2453 -100.9786 316° Northwest 185 213 12,100 -48 Level Albuquerque Center
Mon 12:04:34 PM 35.2822 -101.0239 315° West 188 216 12,000 -48 Descending Albuquerque Center
Mon 12:05:36 PM 35.3261 -101.0764 316° Northwest 186 214 12,000  Level Albuquerque Center
Mon 12:06:38 PM 35.3619 -101.1214 314° West 185 213 12,000  Level Albuquerque Center
Mon 12:07:39 PM 35.3978 -101.1617 318° Northwest 179 206 12,000  Level Albuquerque Center
Mon 12:08:41 PM 35.4319 -101.2092 311° West 185 213 12,000  Level Albuquerque Center
Mon 12:09:43 PM 35.4658 -101.2553 312° West 183 211 12,000  Level Albuquerque Center
Mon 12:10:45 PM 35.4994 -101.3022 311° West 184 212 12,000  Level Albuquerque Center
Mon 12:11:47 PM 35.5422 -101.3556 315° West 183 211 12,000  Level Albuquerque Center
Mon 12:12:49 PM 35.5778 -101.3994 315° West 183 211 12,000  Level Albuquerque Center
Mon 12:13:51 PM 35.6139 -101.4436 315° West 183 211 12,000  Level Albuquerque Center
Mon 12:14:53 PM 35.6494 -101.4875 315° West 182 209 12,000  Level Albuquerque Center
Mon 12:15:55 PM 35.6853 -101.5325 314° West 183 211 12,000  Level Albuquerque Center
Mon 12:16:57 PM 35.7281 -101.5875 314° West 186 214 12,000 48 Level Albuquerque Center
Mon 12:17:59 PM 35.7636 -101.6344 313° West 188 216 12,100 49 Climbing Albuquerque Center
Mon 12:19:00 PM 35.8008 -101.6767 317° Northwest 183 211 12,100  Level Albuquerque Center
Mon 12:20:02 PM 35.8358 -101.7236 313° West 184 212 12,100  Level Albuquerque Center
Mon 12:21:04 PM 35.8711 -101.7722 312° West 188 216 12,100  Level Albuquerque Center
Mon 12:22:07 PM 35.9078 -101.8192 314° West 190 219 12,100  Level Albuquerque Center
Mon 12:23:09 PM 35.9511 -101.8717 316° Northwest 186 214 12,100  Level Albuquerque Center
Mon 12:24:11 PM 35.9869 -101.9197 313° West 187 215 12,100  Level Albuquerque Center
Mon 12:25:13 PM 36.0214 -101.9678 312° West 188 216 12,100  Level Albuquerque Center
Mon 12:26:15 PM 36.0567 -102.0131 314° West 185 213 12,100  Level Albuquerque Center
Mon 12:27:17 PM 36.0919 -102.0575 314° West 182 209 12,100  Level Albuquerque Center
Mon 12:28:19 PM 36.1281 -102.1019 315° West 184 212 12,100  Level Albuquerque Center
Mon 12:29:21 PM 36.1714 -102.1575 314° West 186 214 12,100  Level Albuquerque Center
Mon 12:30:23 PM 36.2067 -102.2036 313° West 184 212 12,100  Level Albuquerque Center
Mon 12:31:25 PM 36.2422 -102.2494 314° West 186 214 12,100  Level Albuquerque Center
Mon 12:32:27 PM 36.2772 -102.2956 313° West 185 213 12,100  Level Albuquerque Center
Mon 12:33:29 PM 36.3125 -102.3411 314° West 185 213 12,100  Level Albuquerque Center
Mon 12:34:31 PM 36.3550 -102.3961 314° West 184 212 12,100  Level Albuquerque Center
Mon 12:35:33 PM 36.3908 -102.4431 313° West 185 213 12,100  Level Albuquerque Center
Mon 12:36:35 PM 36.4256 -102.4894 313° West 185 213 12,100  Level Albuquerque Center
Mon 12:37:37 PM 36.4597 -102.5350 313° West 183 211 12,100  Level Albuquerque Center
Mon 12:38:39 PM 36.4933 -102.5828 311° West 182 209 12,100  Level Albuquerque Center
Mon 12:39:41 PM 36.5294 -102.6292 314° West 185 213 12,100  Level Albuquerque Center
Mon 12:40:43 PM 36.5733 -102.6836 315° West 186 214 12,100  Level Albuquerque Center
Mon 12:41:45 PM 36.6081 -102.7308 312° West 187 215 12,100  Level Albuquerque Center
Mon 12:42:47 PM 36.6419 -102.7753 314° West 191 220 12,100  Level Albuquerque Center
Mon 12:43:49 PM 36.6797 -102.8244 314° West 191 220 12,100  Level Albuquerque Center
Mon 12:44:51 PM 36.7189 -102.8778 313° West 188 216 12,100  Level Albuquerque Center
Mon 12:45:53 PM 36.7539 -102.9222 315° West 187 215 12,100  Level Albuquerque Center
Mon 12:46:55 PM 36.7936 -102.9758 313° West 188 216 12,100  Level Albuquerque Center
Mon 12:47:58 PM 36.8269 -103.0222 312° West 187 215 12,100  Level Albuquerque Center
Mon 12:49:00 PM 36.8656 -103.0731 314° West 182 209 12,100  Level Albuquerque Center
Mon 12:50:02 PM 36.8997 -103.1183 313° West 184 212 12,100  Level Albuquerque Center
Mon 12:51:04 PM 36.9400 -103.1714 314° West 188 216 12,100  Level Albuquerque Center
Mon 12:52:06 PM 36.9714 -103.2161 311° West 182 209 12,100  Level Albuquerque Center
Mon 12:53:08 PM 37.0100 -103.2672 313° West 182 209 12,100  Level Albuquerque Center
Mon 12:54:10 PM 37.0442 -103.3117 314° West 183 211 12,100  Level Albuquerque Center
Mon 12:55:12 PM 37.0817 -103.3650 311° West 183 211 12,100  Level Albuquerque Center
Mon 12:56:14 PM 37.1158 -103.4111 313° West 186 214 12,100  Level Albuquerque Center
Mon 12:57:16 PM 37.1500 -103.4572 313° West 187 215 12,100  Level Albuquerque Center
Mon 12:58:18 PM 37.1883 -103.5083 313° West 183 211 12,100  Level Albuquerque Center
Mon 12:59:20 PM 37.2231 -103.5533 314° West 185 213 12,100  Level Albuquerque Center
Mon 01:00:22 PM 37.2636 -103.6067 314° West 187 215 12,100  Level Albuquerque Center
Mon 01:01:27 PM 37.3042 -103.6592 314° West 189 217 12,100  Level Denver Center
Mon 01:02:29 PM 37.3403 -103.7056 314° West 192 221 12,100  Level Denver Center
Mon 01:03:31 PM 37.3825 -103.7567 316° Northwest 190 219 12,100  Level Denver Center
Mon 01:04:46 PM 37.4247 -103.8081 316° Northwest 190 219 12,100  Level Denver Center
Mon 01:05:48 PM 37.4644 -103.8592 314° West 186 214 12,100  Level Denver Center
Mon 01:06:50 PM 37.4986 -103.9056 313° West 187 215 12,100  Level Denver Center
Mon 01:07:52 PM 37.5394 -103.9564 315° West 187 215 12,100  Level Denver Center
Mon 01:08:54 PM 37.5786 -104.0058 315° West 186 214 12,100  Level Denver Center
Mon 01:09:56 PM 37.6125 -104.0503 314° West 186 214 12,100  Level Denver Center
Mon 01:10:58 PM 37.6525 -104.0997 316° Northwest 183 211 12,100  Level Denver Center
Mon 01:12:00 PM 37.6875 -104.1444 315° West 184 212 12,100  Level Denver Center
Mon 01:13:02 PM 37.7278 -104.1961 315° West 185 213 12,100  Level Denver Center
Mon 01:14:04 PM 37.7619 -104.2397 315° West 184 212 12,100  Level Denver Center
Mon 01:15:06 PM 37.7997 -104.2931 312° West 183 211 12,100  Level Denver Center
Mon 01:16:08 PM 37.8325 -104.3406 311° West 184 212 12,100  Level Denver Center
Mon 01:17:11 PM 37.8722 -104.3900 316° Northwest 182 209 12,100  Level Denver Center
Mon 01:18:13 PM 37.9072 -104.4314 317° Northwest 180 207 12,100  Level Denver Center
Mon 01:19:15 PM 37.9506 -104.4558 336° Northwest 178 205 12,100 -242 Level Denver Center
Mon 01:20:17 PM 38.0031 -104.4856 336° Northwest 181 208 11,600 -435 Descending Denver Center
Mon 01:21:19 PM 38.0486 -104.5133 334° Northwest 186 214 11,200 -387 Descending Denver Center
Mon 01:22:21 PM 38.1039 -104.5472 334° Northwest 192 221 10,800 -435 Descending Denver Center
Mon 01:23:23 PM 38.1478 -104.5792 330° Northwest 193 222 10,300 -484 Descending Denver Center
Mon 01:24:25 PM 38.1808 -104.6456 302° West 196 226 9,800 -435 Descending Denver Center
Mon 01:25:27 PM 38.2117 -104.6983 307° West 196 226 9,400 -432 Descending Denver Center
Mon 01:26:30 PM 38.2478 -104.7589 307° West 194 223 8,900 -480 Descending Denver Center
Mon 01:27:32 PM 38.2803 -104.8128 308° West 197 227 8,400 -532 Descending Denver Center
Mon 01:28:34 PM 38.3192 -104.8706 311° West 196 226 7,800 -409 Descending Denver Center
Mon 01:30:28 PM 38.3667 -104.9667 302° West 159 183 7,200 -277 Descending Denver TRACON
Mon 01:31:27 PM 38.3833 -105.0167 293° West 156 180 7,000 -203 Descending Denver TRACON
Mon 01:33:00 PM 38.4167 -105.1000 313° West  Level FlightAware Approximate
Mon 01:40:00 PM 38.4284 -105.1060 313° West  Level Estimated
Mon 01:41:00 PM 38.4284 -105.1060 313° West  Level Estimated
Mon 01:42:00 PM 38.4284 -105.1060 313° West  Level Estimated

Login

Don't have an account? Register now (free) for customized features, flight alerts, and more!